Time;durP1;ratioP1;P1;durP2;ratioP2;P2;SDS_P1;SDS_P2;PMS_P1;PMS_P2;Temp;Humidity;BMP_temperature;BMP_pressure;BME280_temperature;BME280_humidity;BME280_pressure;Samples;Min_cycle;Max_cycle;Signal;HPM_P1;HPM_P2
2023/11/28 00:01:36;;;;;;;8.00;5.78;;;;;;;6.93;100.00;97254.91;5095094;28;20047;-47
2023/11/28 00:04:02;;;;;;;16.48;13.15;;;;;;;7.40;100.00;97255.34;5093720;28;20031;-47
2023/11/28 00:06:27;;;;;;;11.50;6.70;;;;;;;7.68;100.00;97254.03;5093620;28;20118;-47
2023/11/28 00:08:53;;;;;;;7.75;3.72;;;;;;;8.07;100.00;97252.03;5094938;28;20032;-47
2023/11/28 00:11:20;;;;;;;6.40;3.33;;;;;;;7.72;100.00;97234.31;5093514;28;20028;-47
2023/11/28 00:13:46;;;;;;;6.53;4.22;;;;;;;7.47;100.00;97238.81;5093506;28;20058;-47
2023/11/28 00:16:12;;;;;;;4.07;2.88;;;;;;;7.24;100.00;97240.22;5093445;28;20028;-47
2023/11/28 00:18:38;;;;;;;5.05;2.42;;;;;;;7.05;100.00;97230.75;5094734;28;20085;-47
2023/11/28 00:21:04;;;;;;;2.75;2.15;;;;;;;6.84;100.00;97227.53;5094655;28;20119;-48
2023/11/28 00:23:29;;;;;;;14.32;9.90;;;;;;;6.73;100.00;97236.81;5094678;28;20429;-48
2023/11/28 00:25:55;;;;;;;22.02;19.40;;;;;;;6.72;100.00;97231.78;5094334;28;20115;-48
2023/11/28 00:28:21;;;;;;;6.30;4.97;;;;;;;6.65;100.00;97234.47;5093299;28;20409;-48
2023/11/28 00:30:46;;;;;;;10.25;5.32;;;;;;;6.56;100.00;97246.13;5094499;28;20016;-48
2023/11/28 00:33:12;;;;;;;27.67;25.02;;;;;;;6.54;100.00;97248.16;5094430;28;20558;-48
2023/11/28 00:35:38;;;;;;;7.60;5.28;;;;;;;6.55;100.00;97245.34;5094441;28;20093;-48
2023/11/28 00:38:06;;;;;;;6.20;4.82;;;;;;;6.52;100.00;97240.56;5094374;28;20032;-48
2023/11/28 00:40:32;;;;;;;19.42;17.40;;;;;;;6.84;100.00;97252.78;5094490;28;20020;-48
2023/11/28 00:43:00;;;;;;;8.90;4.93;;;;;;;7.14;100.00;97247.72;5094508;28;20039;-48
2023/11/28 00:45:26;;;;;;;16.45;11.18;;;;;;;7.27;100.00;97246.84;5076149;28;20535;-48
2023/11/28 00:47:53;;;;;;;7.47;5.70;;;;;;;7.32;100.00;97254.81;5094075;28;20099;-48
2023/11/28 00:50:19;;;;;;;8.75;6.93;;;;;;;7.25;100.00;97259.28;5092739;28;20390;-48
2023/11/28 00:52:46;;;;;;;11.30;6.45;;;;;;;7.03;100.00;97264.88;5092809;28;20032;-47
2023/11/28 00:55:12;;;;;;;89.57;81.03;;;;;;;6.92;100.00;97275.97;5093997;28;20024;-47
2023/11/28 00:57:37;;;;;;;23.58;21.17;;;;;;;6.94;100.00;97279.19;5093971;28;20081;-47
2023/11/28 01:00:10;;;;;;;16.08;14.45;;;;;;;7.07;100.00;97279.09;5092529;28;20021;-47
2023/11/28 01:02:37;;;;;;;9.43;6.57;;;;;;;7.38;100.00;97283.47;5093942;28;20112;-47
2023/11/28 01:05:04;;;;;;;15.70;7.05;;;;;;;7.81;100.00;97279.25;5093766;28;20209;-47
2023/11/28 01:07:30;;;;;;;7.68;6.72;;;;;;;7.74;100.00;97292.34;5094060;28;20043;-47
2023/11/28 01:09:56;;;;;;;125.88;114.18;;;;;;;7.65;100.00;97293.66;5093982;28;20374;-47
2023/11/28 01:12:22;;;;;;;7.43;6.53;;;;;;;7.68;100.00;97287.19;5093705;28;20032;-47
2023/11/28 01:14:48;;;;;;;28.58;26.20;;;;;;;7.58;100.00;97274.63;5092342;28;20031;-47
2023/11/28 01:17:14;;;;;;;13.88;9.35;;;;;;;7.58;100.00;97264.19;5093612;28;20028;-47
2023/11/28 01:19:40;;;;;;;14.40;11.00;;;;;;;7.68;100.00;97261.88;5093487;28;20027;-47
2023/11/28 01:22:11;;;;;;;7.85;4.90;;;;;;;7.86;100.00;97249.84;5092110;28;20585;-48
2023/11/28 01:24:37;;;;;;;8.48;5.00;;;;;;;7.60;100.00;97256.94;5093532;28;20020;-47
2023/11/28 01:27:04;;;;;;;7.72;6.55;;;;;;;7.24;100.00;97255.06;5093124;28;20051;-47
2023/11/28 01:29:30;;;;;;;17.48;15.65;;;;;;;6.92;100.00;97257.72;5093408;28;20028;-47
2023/11/28 01:31:56;;;;;;;6.82;4.78;;;;;;;6.78;100.00;97260.44;5093309;28;20394;-48
2023/11/28 01:34:21;;;;;;;9.35;5.45;;;;;;;6.72;100.00;97257.88;5093257;28;20398;-48
2023/11/28 01:36:48;;;;;;;7.97;6.68;;;;;;;6.77;100.00;97250.22;5091864;28;20024;-48
2023/11/28 01:39:14;;;;;;;7.72;4.75;;;;;;;6.77;100.00;97245.00;5093034;28;20103;-48
2023/11/28 01:41:41;;;;;;;7.20;6.25;;;;;;;6.82;100.00;97249.56;5091822;28;20170;-48
2023/11/28 01:44:07;;;;;;;10.25;7.25;;;;;;;6.96;100.00;97251.06;5093276;28;20021;-48
2023/11/28 01:46:35;;;;;;;47.03;42.30;;;;;;;7.02;100.00;97239.00;5091656;28;20028;-48
2023/11/28 01:49:02;;;;;;;16.05;11.48;;;;;;;6.98;100.00;97243.84;5092979;28;20627;-48
2023/11/28 01:51:30;;;;;;;11.13;8.70;;;;;;;7.01;100.00;97238.22;5092927;28;20107;-48
2023/11/28 01:53:59;;;;;;;7.97;6.15;;;;;;;6.93;100.00;97241.88;5092926;28;20016;-48
2023/11/28 01:56:25;;;;;;;12.93;8.63;;;;;;;7.16;100.00;97243.91;5092827;28;20024;-48
2023/11/28 01:58:54;;;;;;;7.65;5.38;;;;;;;7.37;100.00;97227.06;5092822;28;20043;-48
2023/11/28 02:01:21;;;;;;;7.82;5.13;;;;;;;7.44;100.00;97236.63;5091398;28;20024;-48
2023/11/28 02:03:49;;;;;;;18.33;16.23;;;;;;;7.48;100.00;97235.97;5092735;28;20077;-48
2023/11/28 02:06:15;;;;;;;121.07;110.68;;;;;;;7.51;100.00;97237.38;5092192;28;20020;-48
2023/11/28 02:08:41;;;;;;;92.90;84.78;;;;;;;7.58;100.00;97246.72;5091383;28;20690;-48
2023/11/28 02:11:07;;;;;;;13.50;12.07;;;;;;;7.69;100.00;97231.38;5092462;28;20028;-48
2023/11/28 02:13:33;;;;;;;41.60;37.38;;;;;;;7.80;100.00;97231.41;5091234;28;20028;-48
2023/11/28 02:16:08;;;;;;;11.18;9.30;;;;;;;8.34;100.00;97230.78;5092379;28;20024;-46
2023/11/28 02:18:33;;;;;;;128.17;114.87;;;;;;;8.63;100.00;97228.41;5092525;28;20036;-46
2023/11/28 02:20:59;;;;;;;176.20;158.00;;;;;;;8.56;100.00;97218.03;5092258;28;20282;-47
2023/11/28 02:23:25;;;;;;;357.05;318.83;;;;;;;8.68;100.00;97224.09;5092336;28;20094;-47
2023/11/28 02:25:56;;;;;;;55.00;49.13;;;;;;;8.54;100.00;97220.06;5092078;28;20043;-47
2023/11/28 02:28:24;;;;;;;30.98;27.33;;;;;;;8.33;100.00;97224.75;5092274;28;20032;-47
2023/11/28 02:30:52;;;;;;;35.10;31.40;;;;;;;8.17;100.00;97213.09;5092303;28;20029;-46
2023/11/28 02:33:18;;;;;;;22.02;19.83;;;;;;;8.12;100.00;97206.94;5092212;28;20506;-46
2023/11/28 02:35:44;;;;;;;10.82;9.68;;;;;;;7.98;100.00;97206.31;5092250;28;20050;-47
2023/11/28 02:38:12;;;;;;;22.20;19.83;;;;;;;7.85;100.00;97212.50;5091004;28;20134;-47
2023/11/28 02:40:38;;;;;;;59.50;53.38;;;;;;;7.92;100.00;97207.97;5091967;28;20432;-47
2023/11/28 02:43:04;;;;;;;9.65;7.90;;;;;;;7.95;100.00;97206.75;5074021;28;20032;-47
2023/11/28 02:45:29;;;;;;;19.25;16.70;;;;;;;8.01;100.00;97211.09;5092019;28;20027;-47
2023/11/28 02:47:55;;;;;;;13.48;11.52;;;;;;;8.01;100.00;97203.28;5092045;28;20043;-47
2023/11/28 02:50:21;;;;;;;37.63;34.15;;;;;;;7.98;100.00;97206.31;5090598;28;20118;-47
2023/11/28 02:52:46;;;;;;;21.48;17.20;;;;;;;7.98;100.00;97199.25;5090643;28;20021;-47
2023/11/28 02:55:12;;;;;;;18.88;12.45;;;;;;;8.16;100.00;97198.44;5091917;28;20075;-46
2023/11/28 02:57:38;;;;;;;20.58;18.60;;;;;;;8.33;100.00;97195.19;5092197;28;20027;-47
2023/11/28 03:00:08;;;;;;;19.65;14.38;;;;;;;8.18;100.00;97204.22;5091748;28;20107;-46
2023/11/28 03:02:35;;;;;;;10.85;8.05;;;;;;;7.97;100.00;97208.13;5091891;28;20073;-46
2023/11/28 03:05:02;;;;;;;23.35;20.40;;;;;;;7.94;100.00;97203.31;5091840;28;20022;-46
2023/11/28 03:07:28;;;;;;;21.67;8.65;;;;;;;7.98;100.00;97206.31;5090560;28;20031;-45
2023/11/28 03:09:53;;;;;;;56.40;50.67;;;;;;;7.84;100.00;97202.25;5090516;28;20036;-45
2023/11/28 03:12:19;;;;;;;23.83;21.35;;;;;;;7.84;100.00;97208.28;5090447;28;20039;-45
2023/11/28 03:14:45;;;;;;;19.10;14.00;;;;;;;7.83;100.00;97211.91;5090516;28;20024;-45
2023/11/28 03:17:11;;;;;;;26.90;24.15;;;;;;;7.83;100.00;97193.63;5092499;28;20024;-45
2023/11/28 03:19:36;;;;;;;8.18;6.93;;;;;;;7.75;100.00;97207.00;5095756;28;20024;-45
2023/11/28 03:22:02;;;;;;;5.38;3.92;;;;;;;7.56;100.00;97199.13;5094569;28;20085;-45
2023/11/28 03:24:28;;;;;;;5.05;3.65;;;;;;;7.37;100.00;97194.94;5094506;28;20028;-45
2023/11/28 03:26:54;;;;;;;15.68;11.15;;;;;;;7.29;100.00;97205.66;5095481;28;20490;-45
2023/11/28 03:29:20;;;;;;;5.85;3.97;;;;;;;7.19;100.00;97196.50;5095625;28;20163;-45
2023/11/28 03:31:46;;;;;;;5.35;3.70;;;;;;;7.07;100.00;97195.63;5095659;28;20021;-45
2023/11/28 03:34:12;;;;;;;6.95;5.10;;;;;;;6.99;100.00;97193.28;5095589;28;20024;-45
2023/11/28 03:36:38;;;;;;;7.15;3.72;;;;;;;7.04;100.00;97190.03;5095624;28;20024;-47
2023/11/28 03:39:05;;;;;;;6.90;3.90;;;;;;;7.15;100.00;97178.91;5095650;28;20082;-47
2023/11/28 03:41:32;;;;;;;16.02;14.30;;;;;;;7.18;100.00;97175.84;5094457;28;20090;-47
2023/11/28 03:43:58;;;;;;;9.90;5.93;;;;;;;7.24;100.00;97177.59;5094112;28;20490;-47
2023/11/28 03:46:24;;;;;;;10.93;7.18;;;;;;;7.45;100.00;97178.22;5095374;28;20611;-47
2023/11/28 03:48:50;;;;;;;7.28;3.95;;;;;;;7.55;100.00;97181.09;5095336;28;20026;-47
2023/11/28 03:51:16;;;;;;;12.77;8.02;;;;;;;7.55;100.00;97181.09;5093941;28;20107;-47
2023/11/28 03:53:41;;;;;;;16.63;14.43;;;;;;;7.60;100.00;97179.41;5095256;28;20031;-47
2023/11/28 03:56:08;;;;;;;4.53;3.88;;;;;;;7.66;100.00;97169.91;5095100;28;20585;-47
2023/11/28 03:58:34;;;;;;;23.40;21.33;;;;;;;7.56;100.00;97161.81;5095230;28;20016;-47
2023/11/28 04:01:01;;;;;;;5.40;3.75;;;;;;;7.55;100.00;97160.22;5095011;28;20024;-47
2023/11/28 04:03:28;;;;;;;4.15;3.70;;;;;;;7.58;100.00;97150.13;5095048;28;20393;-47
2023/11/28 04:05:55;;;;;;;5.85;5.25;;;;;;;7.59;100.00;97158.75;5094985;28;20055;-47
2023/11/28 04:08:20;;;;;;;8.65;6.50;;;;;;;7.59;100.00;97164.00;5094989;28;20027;-47
2023/11/28 04:10:46;;;;;;;6.82;5.78;;;;;;;7.70;100.00;97168.47;5093598;28;20031;-47
2023/11/28 04:13:12;;;;;;;5.43;4.88;;;;;;;7.78;100.00;97162.94;5094848;28;20489;-47
2023/11/28 04:15:38;;;;;;;5.38;3.15;;;;;;;7.67;100.00;97176.75;5094814;28;20143;-47
2023/11/28 04:18:05;;;;;;;8.70;7.90;;;;;;;7.73;100.00;97182.91;5094698;28;20547;-47
2023/11/28 04:20:31;;;;;;;5.22;1.95;;;;;;;8.07;100.00;97170.22;5093355;28;20028;-47
2023/11/28 04:22:56;;;;;;;8.20;4.43;;;;;;;8.19;100.00;97186.75;5094648;28;20494;-47
2023/11/28 04:25:23;;;;;;;5.35;2.42;;;;;;;8.22;100.00;97188.13;5093593;28;20020;-47
2023/11/28 04:27:49;;;;;;;5.07;2.83;;;;;;;8.24;100.00;97197.31;5093994;28;20040;-48
2023/11/28 04:30:15;;;;;;;3.17;1.70;;;;;;;8.33;100.00;97213.47;5094561;28;20039;-48
2023/11/28 04:32:41;;;;;;;10.35;8.30;;;;;;;8.46;100.00;97215.97;5094514;28;20020;-48
2023/11/28 04:35:07;;;;;;;3.25;2.45;;;;;;;8.58;100.00;97229.06;5093111;28;20082;-46
2023/11/28 04:37:33;;;;;;;11.27;9.88;;;;;;;8.72;100.00;97240.13;5094475;28;20016;-46
2023/11/28 04:39:59;;;;;;;10.93;9.13;;;;;;;9.03;100.00;97243.50;5094188;28;20073;-46
2023/11/28 04:42:25;;;;;;;11.32;7.15;;;;;;;9.34;100.00;97251.03;5094300;28;20012;-47
2023/11/28 04:44:50;;;;;;;5.05;2.25;;;;;;;9.46;100.00;97245.78;5094339;28;20024;-47
2023/11/28 04:47:16;;;;;;;6.75;5.40;;;;;;;9.28;100.00;97246.69;5094211;28;20047;-47
2023/11/28 04:49:42;;;;;;;6.13;2.20;;;;;;;9.24;100.00;97248.19;5092863;28;20024;-48
2023/11/28 04:52:08;;;;;;;6.35;4.40;;;;;;;9.24;100.00;97252.63;5094148;28;20034;-49
2023/11/28 04:54:35;;;;;;;5.53;4.53;;;;;;;9.17;100.00;97243.03;5092788;28;20058;-49
2023/11/28 04:57:01;;;;;;;10.82;5.72;;;;;;;8.96;100.00;97254.06;5092672;28;20463;-47
2023/11/28 04:59:27;;;;;;;8.77;7.88;;;;;;;8.90;100.00;97240.06;5093949;28;20037;-47
2023/11/28 05:01:53;;;;;;;6.18;2.63;;;;;;;8.89;100.00;97248.91;5075768;28;20493;-47
2023/11/28 05:04:19;;;;;;;13.15;11.75;;;;;;;8.87;100.00;97256.19;5093907;28;20031;-46
2023/11/28 05:06:44;;;;;;;8.93;6.00;;;;;;;8.91;100.00;97257.34;5092519;28;20436;-47
2023/11/28 05:09:11;;;;;;;3.13;2.13;;;;;;;8.98;100.00;97263.28;5093786;28;20390;-47
2023/11/28 05:11:41;;;;;;;7.68;5.90;;;;;;;9.01;100.00;97267.25;5092528;28;20055;-47
2023/11/28 05:14:07;;;;;;;8.90;3.83;;;;;;;9.03;100.00;97270.44;5093720;28;20035;-49
2023/11/28 05:16:32;;;;;;;6.63;2.50;;;;;;;9.13;100.00;97268.06;5093716;28;20016;-48
2023/11/28 05:18:58;;;;;;;14.60;9.57;;;;;;;9.21;100.00;97277.41;5092290;28;20077;-49
2023/11/28 05:21:24;;;;;;;4.43;2.47;;;;;;;9.51;100.00;97273.91;5093503;28;20024;-49
2023/11/28 05:23:50;;;;;;;3.80;1.83;;;;;;;9.65;100.00;97275.25;5092251;28;20466;-48
2023/11/28 05:26:15;;;;;;;4.35;2.55;;;;;;;9.63;100.00;97282.56;5091888;28;20549;-49
2023/11/28 05:28:41;;;;;;;12.40;5.55;;;;;;;9.61;100.00;97281.97;5093450;28;20028;-49
2023/11/28 05:31:07;;;;;;;7.82;2.30;;;;;;;9.57;100.00;97278.22;5093412;28;20402;-49
2023/11/28 05:33:35;;;;;;;5.90;3.05;;;;;;;9.49;100.00;97286.44;5092005;28;20058;-49
2023/11/28 05:36:01;;;;;;;6.25;2.13;;;;;;;9.46;100.00;97292.94;5093156;28;20027;-49
2023/11/28 05:38:26;;;;;;;20.60;18.75;;;;;;;9.46;100.00;97292.13;5091958;28;20029;-49
2023/11/28 05:40:52;;;;;;;5.80;4.70;;;;;;;9.40;100.00;97297.25;5092237;28;20024;-49
2023/11/28 05:43:18;;;;;;;6.53;5.68;;;;;;;9.35;100.00;97291.09;5091823;28;20026;-49
2023/11/28 05:45:43;;;;;;;7.18;3.95;;;;;;;9.45;100.00;97295.75;5091779;28;20024;-48
2023/11/28 05:48:09;;;;;;;25.27;22.10;;;;;;;9.68;100.00;97300.19;5093050;28;20451;-49
2023/11/28 05:50:35;;;;;;;11.98;7.00;;;;;;;9.77;100.00;97302.25;5091666;28;20522;-49
2023/11/28 05:53:01;;;;;;;8.15;3.05;;;;;;;9.77;100.00;97301.47;5091616;28;20039;-48
2023/11/28 05:55:27;;;;;;;8.60;3.75;;;;;;;9.90;100.00;97311.72;5091550;28;20036;-49
2023/11/28 05:57:52;;;;;;;6.20;4.20;;;;;;;9.95;100.00;97311.00;5092837;28;20020;-49
2023/11/28 06:00:18;;;;;;;7.50;3.00;;;;;;;10.03;100.00;97315.91;5093031;28;20023;-49
2023/11/28 06:02:45;;;;;;;5.47;3.10;;;;;;;10.23;100.00;97309.50;5091463;28;20459;-49
2023/11/28 06:05:10;;;;;;;9.18;2.30;;;;;;;10.27;100.00;97324.50;5092742;28;20016;-49
2023/11/28 06:07:36;;;;;;;16.50;8.05;;;;;;;10.33;100.00;97326.25;5091354;28;20074;-49
2023/11/28 06:10:04;;;;;;;5.53;3.40;;;;;;;10.46;100.00;97330.41;5092572;28;20036;-49
2023/11/28 06:12:30;;;;;;;4.78;3.42;;;;;;;10.41;100.00;97329.53;5092640;28;20031;-49
2023/11/28 06:14:56;;;;;;;4.25;2.33;;;;;;;10.24;100.00;97339.91;5091221;28;20024;-49
2023/11/28 06:17:22;;;;;;;6.60;4.10;;;;;;;10.26;100.00;97340.47;5092713;28;20028;-49
2023/11/28 06:19:47;;;;;;;7.97;3.42;;;;;;;10.28;100.00;97346.28;5092399;28;20024;-49
2023/11/28 06:22:13;;;;;;;150.70;137.10;;;;;;;10.40;100.00;97357.56;5092412;28;20439;-49
2023/11/28 06:24:39;;;;;;;12.43;8.75;;;;;;;10.45;100.00;97359.53;5092370;28;20787;-49
2023/11/28 06:27:05;;;;;;;15.65;7.95;;;;;;;10.54;100.00;97364.19;5090813;28;20074;-49
2023/11/28 06:29:34;;;;;;;11.38;6.43;;;;;;;10.74;100.00;97376.06;5091031;28;20028;-49
2023/11/28 06:32:00;;;;;;;7.35;4.07;;;;;;;10.78;100.00;97385.06;5092234;28;20024;-48
2023/11/28 06:34:26;;;;;;;40.00;35.90;;;;;;;10.20;100.00;97387.56;5092214;28;20516;-47
2023/11/28 06:36:53;;;;;;;9.38;4.90;;;;;;;9.71;100.00;97405.34;5092203;28;20055;-47
2023/11/28 06:39:19;;;;;;;7.00;3.28;;;;;;;9.27;100.00;97407.41;5090827;28;20024;-47
2023/11/28 06:41:45;;;;;;;9.30;3.03;;;;;;;9.03;100.00;97416.19;5090833;28;20024;-47
2023/11/28 06:44:11;;;;;;;20.20;9.25;;;;;;;9.02;100.00;97414.63;5092042;28;20510;-47
2023/11/28 06:46:37;;;;;;;23.88;14.93;;;;;;;9.08;100.00;97416.34;5090735;28;20043;-47
2023/11/28 06:49:05;;;;;;;69.65;41.45;;;;;;;8.98;100.00;97415.03;5091947;28;20510;-47
2023/11/28 06:51:32;;;;;;;184.80;165.07;;;;;;;9.13;100.00;97419.88;5090584;28;20024;-47
2023/11/28 06:53:58;;;;;;;38.80;33.80;;;;;;;9.32;100.00;97430.31;5091963;28;20039;-47
2023/11/28 06:56:24;;;;;;;49.95;34.40;;;;;;;9.26;100.00;97442.47;5091934;28;20065;-47
2023/11/28 06:58:51;;;;;;;70.05;52.05;;;;;;;9.12;100.00;97434.00;5090561;28;20401;-47
2023/11/28 07:01:18;;;;;;;31.25;15.95;;;;;;;9.18;100.00;97446.19;5091824;28;20039;-47
2023/11/28 07:03:44;;;;;;;57.78;47.25;;;;;;;9.40;100.00;97453.56;5092158;28;20016;-47
2023/11/28 07:06:10;;;;;;;37.05;26.35;;;;;;;9.49;100.00;97465.31;5091798;28;20028;-47
2023/11/28 07:08:37;;;;;;;146.43;132.80;;;;;;;9.53;100.00;97473.50;5091735;28;20020;-47
2023/11/28 07:11:02;;;;;;;27.75;22.98;;;;;;;9.52;100.00;97477.16;5091747;28;20097;-47
2023/11/28 07:13:28;;;;;;;37.90;24.85;;;;;;;9.44;100.00;97475.66;5091789;28;20050;-47
2023/11/28 07:15:54;;;;;;;27.75;19.67;;;;;;;9.37;100.00;97482.78;5090739;28;20028;-48
2023/11/28 07:18:20;;;;;;;111.97;100.80;;;;;;;9.30;100.00;97490.75;5090444;28;20107;-47
2023/11/28 07:20:50;;;;;;;40.85;26.33;;;;;;;9.25;100.00;97495.03;5090274;28;20056;-48
2023/11/28 07:23:19;;;;;;;15.35;5.68;;;;;;;9.28;100.00;97498.03;5090674;28;20020;-47
2023/11/28 07:25:46;;;;;;;103.75;85.10;;;;;;;9.28;100.00;97510.31;5073890;28;20089;-48
2023/11/28 07:28:12;;;;;;;40.03;20.33;;;;;;;9.74;100.00;97509.69;5090678;28;20036;-47
2023/11/28 07:30:38;;;;;;;57.60;24.50;;;;;;;9.80;100.00;97506.16;5091610;28;20097;-47
2023/11/28 07:33:04;;;;;;;272.10;243.32;;;;;;;10.11;100.00;97511.34;5091512;28;20073;-47
2023/11/28 07:35:29;;;;;;;80.65;67.75;;;;;;;10.26;100.00;97513.53;5091533;28;20020;-47
2023/11/28 07:37:56;;;;;;;81.07;68.90;;;;;;;10.17;100.00;97519.09;5091502;28;20016;-47
2023/11/28 07:40:24;;;;;;;176.30;157.25;;;;;;;9.97;100.00;97510.75;5091441;28;20103;-47
2023/11/28 07:42:49;;;;;;;26.38;16.55;;;;;;;9.91;100.00;97514.28;5091386;28;20023;-47
2023/11/28 07:45:15;;;;;;;12.25;5.65;;;;;;;9.96;100.00;97512.59;5090119;28;20101;-47
2023/11/28 07:47:41;;;;;;;55.83;49.75;;;;;;;9.79;100.00;97519.50;5091492;28;20035;-47
2023/11/28 07:50:08;;;;;;;21.73;13.18;;;;;;;9.47;100.00;97522.34;5091345;28;20131;-47
2023/11/28 07:52:34;;;;;;;10.40;3.85;;;;;;;9.35;100.00;97527.53;5091404;28;20047;-47
2023/11/28 07:55:00;;;;;;;15.48;4.18;;;;;;;9.31;100.00;97526.38;5091427;28;20076;-47
2023/11/28 07:57:25;;;;;;;7.13;3.58;;;;;;;9.47;100.00;97532.03;5090166;28;20100;-47
2023/11/28 07:59:51;;;;;;;11.05;2.92;;;;;;;9.72;100.00;97524.84;5089985;28;20036;-48
2023/11/28 08:02:17;;;;;;;11.40;6.10;;;;;;;9.72;100.00;97529.28;5090048;28;20556;-48
2023/11/28 08:04:43;;;;;;;14.25;3.95;;;;;;;9.74;100.00;97533.28;5076294;28;20028;-48
2023/11/28 08:07:08;;;;;;;15.57;4.25;;;;;;;9.71;100.00;97538.16;5095016;28;20153;-48
2023/11/28 08:09:34;;;;;;;22.63;5.97;;;;;;;9.88;100.00;97535.69;5095060;28;20478;-48
2023/11/28 08:11:59;;;;;;;26.65;13.35;;;;;;;9.92;100.00;97539.44;5094927;28;20028;-48
2023/11/28 08:14:25;;;;;;;26.75;17.15;;;;;;;10.29;100.00;97544.56;5094902;28;20051;-48
2023/11/28 08:16:51;;;;;;;33.65;16.67;;;;;;;10.42;100.00;97554.84;5094755;28;20478;-48
2023/11/28 08:19:16;;;;;;;25.42;15.57;;;;;;;10.46;100.00;97560.44;5094729;28;20030;-48
2023/11/28 08:21:42;;;;;;;72.28;59.50;;;;;;;10.45;100.00;97562.28;5094694;28;20062;-49
2023/11/28 08:24:08;;;;;;;35.55;32.03;;;;;;;10.62;100.00;97557.13;5093368;28;20059;-49
2023/11/28 08:26:34;;;;;;;31.98;25.15;;;;;;;10.63;100.00;97563.19;5094325;28;20043;-49
2023/11/28 08:29:00;;;;;;;47.00;28.98;;;;;;;10.19;100.00;97563.47;5094627;28;20470;-48
2023/11/28 08:31:25;;;;;;;33.75;18.85;;;;;;;9.82;100.00;97570.66;5094512;28;20409;-49
2023/11/28 08:33:51;;;;;;;27.77;19.20;;;;;;;9.45;100.00;97563.66;5094486;28;20493;-49
2023/11/28 08:36:17;;;;;;;33.95;25.33;;;;;;;9.48;100.00;97570.31;5094483;28;20016;-48
2023/11/28 08:38:43;;;;;;;29.42;24.08;;;;;;;10.73;100.00;97558.97;5094678;28;20024;-49
2023/11/28 08:41:10;;;;;;;25.30;19.23;;;;;;;12.05;100.00;97556.53;5094273;28;20027;-47
2023/11/28 08:43:36;;;;;;;17.83;11.20;;;;;;;13.11;100.00;97561.00;5094369;28;20052;-47
2023/11/28 08:46:02;;;;;;;17.33;10.85;;;;;;;12.94;100.00;97558.41;5094404;28;20032;-47
2023/11/28 08:48:28;;;;;;;13.40;12.02;;;;;;;12.07;100.00;97565.00;5094261;28;20020;-47
2023/11/28 08:50:53;;;;;;;9.15;5.60;;;;;;;11.17;100.00;97571.72;5092787;28;20386;-47
2023/11/28 08:53:19;;;;;;;9.90;5.30;;;;;;;10.60;100.00;97577.56;5094184;28;20052;-47
2023/11/28 08:55:45;;;;;;;9.75;7.60;;;;;;;10.52;100.00;97581.34;5092728;28;20111;-47
2023/11/28 08:58:11;;;;;;;19.45;17.50;;;;;;;10.89;100.00;97583.72;5092752;28;20120;-47
2023/11/28 09:00:37;;;;;;;6.53;3.75;;;;;;;10.99;100.00;97598.91;5092589;28;20055;-47
2023/11/28 09:03:03;;;;;;;37.50;33.63;;;;;;;11.00;100.00;97603.91;5092702;28;20060;-47
2023/11/28 09:05:28;;;;;;;16.33;14.63;;;;;;;10.94;100.00;97607.44;5093902;28;20030;-47
2023/11/28 09:07:57;;;;;;;13.32;9.55;;;;;;;10.88;100.00;97608.38;5093794;28;20371;-47
2023/11/28 09:10:23;;;;;;;10.38;8.32;;;;;;;10.81;100.00;97617.41;5093754;28;20082;-47
2023/11/28 09:12:49;;;;;;;14.27;8.15;;;;;;;10.96;100.00;97613.25;5092450;28;20027;-47
2023/11/28 09:15:16;;;;;;;6.40;5.15;;;;;;;11.28;100.00;97614.72;5091160;28;20036;-47
2023/11/28 09:17:42;;;;;;;4.50;2.08;;;;;;;11.33;100.00;97622.72;5092299;28;20020;-47
2023/11/28 09:20:09;;;;;;;11.85;10.68;;;;;;;11.18;100.00;97617.94;5093536;28;20065;-47
2023/11/28 09:22:35;;;;;;;7.97;2.85;;;;;;;10.96;100.00;97617.72;5093580;28;20405;-47
2023/11/28 09:25:01;;;;;;;5.13;3.72;;;;;;;10.88;100.00;97624.13;5093445;28;20032;-48
2023/11/28 09:27:27;;;;;;;5.72;3.20;;;;;;;10.90;100.00;97619.44;5093295;28;20051;-47
2023/11/28 09:29:53;;;;;;;9.63;4.05;;;;;;;11.06;100.00;97625.81;5092075;28;20410;-47
2023/11/28 09:32:18;;;;;;;6.50;3.72;;;;;;;11.31;100.00;97612.44;5075133;28;20031;-47
2023/11/28 09:34:44;;;;;;;4.72;2.65;;;;;;;11.42;100.00;97617.91;5093361;28;20553;-47
2023/11/28 09:37:11;;;;;;;3.33;2.03;;;;;;;11.63;100.00;97613.84;5093313;28;20038;-47
2023/11/28 09:39:37;;;;;;;9.75;3.08;;;;;;;12.02;100.00;97614.09;5093172;28;20016;-47
2023/11/28 09:42:08;;;;;;;10.02;2.25;;;;;;;12.41;100.00;97617.63;5093142;28;20034;-48
2023/11/28 09:44:35;;;;;;;6.50;2.33;;;;;;;12.69;100.00;97616.75;5091911;28;20028;-47
2023/11/28 09:47:08;;;;;;;3.78;1.60;;;;;;;12.55;100.00;97616.28;5092043;28;20085;-47
2023/11/28 09:49:40;;;;;;;11.38;5.05;;;;;;;12.51;100.00;97614.38;5093226;28;20089;-47
2023/11/28 09:52:07;;;;;;;4.68;1.85;;;;;;;12.53;100.00;97614.94;5093017;28;20040;-47
2023/11/28 09:54:34;;;;;;;7.78;2.55;;;;;;;12.62;100.00;97610.88;5074984;28;20016;-47
2023/11/28 09:57:00;;;;;;;4.32;1.30;;;;;;;12.65;100.00;97615.66;5091529;28;20111;-47
2023/11/28 09:59:29;;;;;;;18.98;12.75;;;;;;;12.67;100.00;97615.41;5092830;28;20050;-47
2023/11/28 10:01:55;;;;;;;9.38;2.20;;;;;;;12.80;100.00;97609.84;5092717;28;20078;-47
2023/11/28 10:04:22;;;;;;;8.52;2.10;;;;;;;12.75;100.00;97620.28;5092779;28;20532;-47
2023/11/28 10:06:49;;;;;;;1.48;1.10;;;;;;;12.47;100.00;97623.78;5091449;28;20027;-47
2023/11/28 10:09:16;;;;;;;10.02;2.00;;;;;;;12.27;100.00;97621.59;5092763;28;20020;-47
2023/11/28 10:11:43;;;;;;;4.95;1.60;;;;;;;12.21;100.00;97625.19;5092922;28;20058;-47
2023/11/28 10:14:09;;;;;;;5.72;2.05;;;;;;;12.21;100.00;97622.56;5092649;28;20439;-47
2023/11/28 10:16:51;;;;;;;6.93;1.40;;;;;;;12.02;100.00;97625.41;5092555;28;20020;-47
2023/11/28 10:19:17;;;;;;;6.50;2.20;;;;;;;12.03;100.00;97626.97;5092553;28;20030;-47
2023/11/28 10:21:45;;;;;;;4.70;2.38;;;;;;;11.95;100.00;97622.91;5091156;28;20024;-47
2023/11/28 10:24:11;;;;;;;5.55;3.90;;;;;;;11.88;100.00;97630.09;5092400;28;20039;-47
2023/11/28 10:26:37;;;;;;;5.75;4.22;;;;;;;11.94;100.00;97625.78;5091732;28;20044;-47
2023/11/28 10:29:06;;;;;;;7.63;4.20;;;;;;;12.01;100.00;97625.63;5092357;28;20063;-47
2023/11/28 10:31:40;;;;;;;9.73;6.85;;;;;;;12.12;100.00;97622.94;5091247;28;20036;-47
2023/11/28 10:34:09;;;;;;;6.82;3.28;;;;;;;12.32;100.00;97624.34;5092269;28;20737;-47
2023/11/28 10:36:42;;;;;;;10.32;3.35;;;;;;;12.30;100.00;97619.31;5092235;28;20367;-48
2023/11/28 10:39:12;;;;;;;8.82;2.03;;;;;;;12.19;100.00;97623.59;5092131;28;20023;-47
2023/11/28 10:41:40;;;;;;;3.78;1.60;;;;;;;12.08;100.00;97628.94;5090744;28;20028;-47
2023/11/28 10:44:07;;;;;;;1.73;1.10;;;;;;;12.05;100.00;97632.81;5074019;28;20026;-47
2023/11/28 10:46:34;;;;;;;6.45;2.05;;;;;;;12.18;100.00;97629.88;5092037;28;20080;-47
2023/11/28 10:49:05;;;;;;;4.15;1.90;;;;;;;12.39;100.00;97627.59;5090728;28;20417;-47
2023/11/28 10:51:32;;;;;;;4.28;1.17;;;;;;;12.54;100.00;97643.66;5092408;28;20057;-47
2023/11/28 10:54:18;;;;;;;6.72;1.17;;;;;;;12.47;100.00;97640.38;5092002;28;20024;-47
2023/11/28 10:56:49;;;;;;;8.77;3.08;;;;;;;12.39;100.00;97638.13;5090661;28;20061;-47
2023/11/28 10:59:33;;;;;;;3.33;1.20;;;;;;;12.44;100.00;97632.16;5091851;28;20103;-48
2023/11/28 11:02:01;;;;;;;5.43;1.27;;;;;;;12.48;100.00;97635.91;5091900;28;20070;-47
2023/11/28 11:04:28;;;;;;;6.95;1.85;;;;;;;12.38;100.00;97634.72;5091841;28;20028;-48
2023/11/28 11:06:54;;;;;;;5.93;2.03;;;;;;;12.34;100.00;97628.31;5090787;28;20379;-48
2023/11/28 11:09:24;;;;;;;5.72;1.60;;;;;;;12.48;100.00;97630.66;5091899;28;20043;-48
2023/11/28 11:11:52;;;;;;;8.45;1.10;;;;;;;12.31;100.00;97633.25;5090516;28;20528;-48
2023/11/28 11:14:40;;;;;;;4.72;1.42;;;;;;;12.07;100.00;97630.72;5090520;28;20493;-47
2023/11/28 11:17:30;;;;;;;7.05;1.55;;;;;;;12.25;100.00;97631.56;5091827;28;20077;-48
2023/11/28 11:19:58;;;;;;;13.23;1.92;;;;;;;12.34;100.00;97627.53;5090311;28;20020;-48
2023/11/28 11:22:29;;;;;;;7.88;2.28;;;;;;;12.32;100.00;97625.13;5091626;28;20571;-47